Circleville, Utah
Current Conditions -  °F | °C
As of 11:53 AM on Friday 21 Nov 2014 (Local Time) from KBCE Reporting Station
Clear Clear  
Wind Chill: 40°   Ceiling: Unl
Heat Index: 44°   Visibility: 10mi
Dew Point: 20°   Wind: 7mph
Humidity: 38%   Direction: 130°SE
Pressure: 30.06"   Gusts: NA
Location:  38.17°N, 112.27°W
Report Text: KBCE 211853Z AUTO 13006KT 10SM CLR 07/M07 A3006 RMK AO2 SLP142 T00671067
Loading
Personal Weather Stations






























Interactive Weather Map New forecast layout! Learn more

10-Day Weather Forecast

Advertisements
Track Severe Weather on mobile